sensor_id;sensor_type;location;lat;lon;timestamp;temperature;humidity
28171;DHT22;15458;53.346;-1.688;2022-08-23T00:02:03;17.40;99.90
28171;DHT22;15458;53.346;-1.688;2022-08-23T00:04:32;17.30;99.90
28171;DHT22;15458;53.346;-1.688;2022-08-23T00:06:59;17.30;99.90
28171;DHT22;15458;53.346;-1.688;2022-08-23T00:09:26;17.30;99.90
28171;DHT22;15458;53.346;-1.688;2022-08-23T00:12:14;17.30;99.90
28171;DHT22;15458;53.346;-1.688;2022-08-23T00:14:43;17.30;99.90
28171;DHT22;15458;53.346;-1.688;2022-08-23T00:17:10;17.20;99.90
28171;DHT22;15458;53.346;-1.688;2022-08-23T00:19:39;17.20;99.90
28171;DHT22;15458;53.346;-1.688;2022-08-23T00:22:05;17.20;99.90
28171;DHT22;15458;53.346;-1.688;2022-08-23T00:24:31;17.20;99.90
28171;DHT22;15458;53.346;-1.688;2022-08-23T00:27:11;17.20;99.90
28171;DHT22;15458;53.346;-1.688;2022-08-23T00:29:44;17.20;99.90
28171;DHT22;15458;53.346;-1.688;2022-08-23T00:32:14;17.10;99.90
28171;DHT22;15458;53.346;-1.688;2022-08-23T00:34:40;17.10;99.90
28171;DHT22;15458;53.346;-1.688;2022-08-23T00:37:07;17.10;99.90
28171;DHT22;15458;53.346;-1.688;2022-08-23T00:39:34;17.00;99.90
28171;DHT22;15458;53.346;-1.688;2022-08-23T00:45:41;17.00;99.90
28171;DHT22;15458;53.346;-1.688;2022-08-23T00:48:29;16.90;99.90
28171;DHT22;15458;53.346;-1.688;2022-08-23T00:51:12;16.90;99.90
28171;DHT22;15458;53.346;-1.688;2022-08-23T00:53:52;16.90;99.90
28171;DHT22;15458;53.346;-1.688;2022-08-23T00:56:29;16.80;99.90
28171;DHT22;15458;53.346;-1.688;2022-08-23T00:58:56;16.80;99.90
28171;DHT22;15458;53.346;-1.688;2022-08-23T01:01:23;16.80;99.90
28171;DHT22;15458;53.346;-1.688;2022-08-23T01:03:52;16.80;99.90
28171;DHT22;15458;53.346;-1.688;2022-08-23T01:09:08;16.70;99.90
28171;DHT22;15458;53.346;-1.688;2022-08-23T01:14:30;16.70;99.90
28171;DHT22;15458;53.346;-1.688;2022-08-23T01:17:20;16.60;99.90
28171;DHT22;15458;53.346;-1.688;2022-08-23T01:19:56;16.60;99.90
28171;DHT22;15458;53.346;-1.688;2022-08-23T01:24:59;16.50;99.90
28171;DHT22;15458;53.346;-1.688;2022-08-23T01:27:26;16.60;99.90
28171;DHT22;15458;53.346;-1.688;2022-08-23T01:29:53;16.50;99.90
28171;DHT22;15458;53.346;-1.688;2022-08-23T01:32:19;16.50;99.90
28171;DHT22;15458;53.346;-1.688;2022-08-23T01:34:45;16.50;99.90
28171;DHT22;15458;53.346;-1.688;2022-08-23T01:37:11;16.40;99.90
28171;DHT22;15458;53.346;-1.688;2022-08-23T01:39:39;16.50;99.90
28171;DHT22;15458;53.346;-1.688;2022-08-23T01:42:05;16.40;99.90
28171;DHT22;15458;53.346;-1.688;2022-08-23T01:44:32;16.40;99.90
28171;DHT22;15458;53.346;-1.688;2022-08-23T01:46:58;16.40;99.90
28171;DHT22;15458;53.346;-1.688;2022-08-23T01:49:25;16.40;99.90
28171;DHT22;15458;53.346;-1.688;2022-08-23T01:51:51;16.30;99.90
28171;DHT22;15458;53.346;-1.688;2022-08-23T01:54:16;16.30;99.90
28171;DHT22;15458;53.346;-1.688;2022-08-23T01:56:43;16.30;99.90
28171;DHT22;15458;53.346;-1.688;2022-08-23T01:59:12;16.30;99.90
28171;DHT22;15458;53.346;-1.688;2022-08-23T02:01:40;16.20;99.90
28171;DHT22;15458;53.346;-1.688;2022-08-23T02:04:05;16.20;99.90
28171;DHT22;15458;53.346;-1.688;2022-08-23T02:06:32;16.20;99.90
28171;DHT22;15458;53.346;-1.688;2022-08-23T02:08:58;16.20;99.90
28171;DHT22;15458;53.346;-1.688;2022-08-23T02:11:50;16.20;99.90
28171;DHT22;15458;53.346;-1.688;2022-08-23T02:14:19;16.10;99.90
28171;DHT22;15458;53.346;-1.688;2022-08-23T02:16:51;16.10;99.90
28171;DHT22;15458;53.346;-1.688;2022-08-23T02:19:18;16.10;99.90
28171;DHT22;15458;53.346;-1.688;2022-08-23T02:21:45;16.00;99.90
28171;DHT22;15458;53.346;-1.688;2022-08-23T02:24:14;16.00;99.90
28171;DHT22;15458;53.346;-1.688;2022-08-23T02:26:48;16.00;99.90
28171;DHT22;15458;53.346;-1.688;2022-08-23T02:29:15;16.00;99.90
28171;DHT22;15458;53.346;-1.688;2022-08-23T02:31:41;16.00;99.90
28171;DHT22;15458;53.346;-1.688;2022-08-23T02:34:14;16.00;99.90
28171;DHT22;15458;53.346;-1.688;2022-08-23T02:36:40;16.00;99.90
28171;DHT22;15458;53.346;-1.688;2022-08-23T02:39:09;16.00;99.90
28171;DHT22;15458;53.346;-1.688;2022-08-23T02:41:36;16.00;99.90
28171;DHT22;15458;53.346;-1.688;2022-08-23T02:44:04;16.00;99.90
28171;DHT22;15458;53.346;-1.688;2022-08-23T02:46:37;16.00;99.90
28171;DHT22;15458;53.346;-1.688;2022-08-23T02:49:03;16.00;99.90
28171;DHT22;15458;53.346;-1.688;2022-08-23T02:51:29;16.00;99.90
28171;DHT22;15458;53.346;-1.688;2022-08-23T02:53:55;16.00;99.90
28171;DHT22;15458;53.346;-1.688;2022-08-23T02:56:21;16.00;99.90
28171;DHT22;15458;53.346;-1.688;2022-08-23T02:58:49;16.00;99.90
28171;DHT22;15458;53.346;-1.688;2022-08-23T03:01:19;16.00;99.90
28171;DHT22;15458;53.346;-1.688;2022-08-23T03:03:47;16.00;99.90
28171;DHT22;15458;53.346;-1.688;2022-08-23T03:06:18;16.00;99.90
28171;DHT22;15458;53.346;-1.688;2022-08-23T03:08:43;16.00;99.90
28171;DHT22;15458;53.346;-1.688;2022-08-23T03:11:11;16.00;99.90
28171;DHT22;15458;53.346;-1.688;2022-08-23T03:13:40;16.00;99.90
28171;DHT22;15458;53.346;-1.688;2022-08-23T03:16:08;16.00;99.90
28171;DHT22;15458;53.346;-1.688;2022-08-23T03:18:35;16.00;99.90
28171;DHT22;15458;53.346;-1.688;2022-08-23T03:21:02;16.00;99.90
28171;DHT22;15458;53.346;-1.688;2022-08-23T03:23:28;16.00;99.90
28171;DHT22;15458;53.346;-1.688;2022-08-23T03:25:56;16.00;99.90
28171;DHT22;15458;53.346;-1.688;2022-08-23T03:28:22;16.00;99.90
28171;DHT22;15458;53.346;-1.688;2022-08-23T03:30:48;16.00;99.90
28171;DHT22;15458;53.346;-1.688;2022-08-23T03:33:19;15.90;99.90
28171;DHT22;15458;53.346;-1.688;2022-08-23T03:35:45;15.90;99.90
28171;DHT22;15458;53.346;-1.688;2022-08-23T03:38:12;15.90;99.90
28171;DHT22;15458;53.346;-1.688;2022-08-23T03:40:39;16.00;99.90
28171;DHT22;15458;53.346;-1.688;2022-08-23T03:43:05;16.00;99.90
28171;DHT22;15458;53.346;-1.688;2022-08-23T03:45:31;16.00;99.90
28171;DHT22;15458;53.346;-1.688;2022-08-23T03:47:57;16.00;99.90
28171;DHT22;15458;53.346;-1.688;2022-08-23T03:50:24;16.00;99.90
28171;DHT22;15458;53.346;-1.688;2022-08-23T03:52:50;16.00;99.90
28171;DHT22;15458;53.346;-1.688;2022-08-23T03:55:16;16.00;99.90
28171;DHT22;15458;53.346;-1.688;2022-08-23T03:57:42;16.00;99.90
28171;DHT22;15458;53.346;-1.688;2022-08-23T04:00:10;16.00;99.90
28171;DHT22;15458;53.346;-1.688;2022-08-23T04:02:38;16.00;99.90
28171;DHT22;15458;53.346;-1.688;2022-08-23T04:05:05;16.00;99.90
28171;DHT22;15458;53.346;-1.688;2022-08-23T04:07:33;15.90;99.90
28171;DHT22;15458;53.346;-1.688;2022-08-23T04:10:00;15.90;99.90
28171;DHT22;15458;53.346;-1.688;2022-08-23T04:12:26;15.90;99.90
28171;DHT22;15458;53.346;-1.688;2022-08-23T04:14:52;15.90;99.90
28171;DHT22;15458;53.346;-1.688;2022-08-23T04:17:23;15.80;99.90
28171;DHT22;15458;53.346;-1.688;2022-08-23T04:19:49;15.90;99.90
28171;DHT22;15458;53.346;-1.688;2022-08-23T04:22:17;15.90;99.90
28171;DHT22;15458;53.346;-1.688;2022-08-23T04:24:44;15.90;99.90
28171;DHT22;15458;53.346;-1.688;2022-08-23T04:27:10;15.90;99.90
28171;DHT22;15458;53.346;-1.688;2022-08-23T04:29:38;16.00;99.90
28171;DHT22;15458;53.346;-1.688;2022-08-23T04:32:06;16.00;99.90
28171;DHT22;15458;53.346;-1.688;2022-08-23T04:34:33;16.00;99.90
28171;DHT22;15458;53.346;-1.688;2022-08-23T04:36:59;15.90;99.90
28171;DHT22;15458;53.346;-1.688;2022-08-23T04:39:26;15.90;99.90
28171;DHT22;15458;53.346;-1.688;2022-08-23T04:41:52;15.90;99.90
28171;DHT22;15458;53.346;-1.688;2022-08-23T04:44:37;15.90;99.90
28171;DHT22;15458;53.346;-1.688;2022-08-23T04:47:04;15.90;99.90
28171;DHT22;15458;53.346;-1.688;2022-08-23T04:49:32;15.90;99.90
28171;DHT22;15458;53.346;-1.688;2022-08-23T04:51:58;15.90;99.90
28171;DHT22;15458;53.346;-1.688;2022-08-23T04:54:25;15.90;99.90
28171;DHT22;15458;53.346;-1.688;2022-08-23T04:56:51;15.90;99.90
28171;DHT22;15458;53.346;-1.688;2022-08-23T04:59:17;15.90;99.90
28171;DHT22;15458;53.346;-1.688;2022-08-23T05:01:44;15.90;99.90
28171;DHT22;15458;53.346;-1.688;2022-08-23T05:04:10;15.90;99.90
28171;DHT22;15458;53.346;-1.688;2022-08-23T05:06:36;15.90;99.90
28171;DHT22;15458;53.346;-1.688;2022-08-23T05:09:03;15.90;99.90
28171;DHT22;15458;53.346;-1.688;2022-08-23T05:11:28;15.90;99.90
28171;DHT22;15458;53.346;-1.688;2022-08-23T05:13:54;15.90;99.90
28171;DHT22;15458;53.346;-1.688;2022-08-23T05:16:22;15.90;99.90
28171;DHT22;15458;53.346;-1.688;2022-08-23T05:18:48;15.90;99.90
28171;DHT22;15458;53.346;-1.688;2022-08-23T05:21:20;16.00;99.90
28171;DHT22;15458;53.346;-1.688;2022-08-23T05:23:46;16.00;99.90
28171;DHT22;15458;53.346;-1.688;2022-08-23T05:26:12;16.00;99.90
28171;DHT22;15458;53.346;-1.688;2022-08-23T05:28:44;16.00;99.90
28171;DHT22;15458;53.346;-1.688;2022-08-23T05:31:18;16.00;99.90
28171;DHT22;15458;53.346;-1.688;2022-08-23T05:33:46;15.90;99.90
28171;DHT22;15458;53.346;-1.688;2022-08-23T05:36:14;15.90;99.90
28171;DHT22;15458;53.346;-1.688;2022-08-23T05:38:42;15.90;99.90
28171;DHT22;15458;53.346;-1.688;2022-08-23T05:41:08;15.90;99.90
28171;DHT22;15458;53.346;-1.688;2022-08-23T05:43:34;15.90;99.90
28171;DHT22;15458;53.346;-1.688;2022-08-23T05:48:36;15.90;99.90
28171;DHT22;15458;53.346;-1.688;2022-08-23T05:51:18;15.90;99.90
28171;DHT22;15458;53.346;-1.688;2022-08-23T05:53:45;16.00;99.90
28171;DHT22;15458;53.346;-1.688;2022-08-23T05:56:20;16.00;99.90
28171;DHT22;15458;53.346;-1.688;2022-08-23T05:58:49;16.10;99.90
28171;DHT22;15458;53.346;-1.688;2022-08-23T06:01:16;16.10;99.90
28171;DHT22;15458;53.346;-1.688;2022-08-23T06:03:43;16.10;99.90
28171;DHT22;15458;53.346;-1.688;2022-08-23T06:06:13;16.20;99.90
28171;DHT22;15458;53.346;-1.688;2022-08-23T06:08:43;16.20;99.90
28171;DHT22;15458;53.346;-1.688;2022-08-23T06:11:12;16.30;99.90
28171;DHT22;15458;53.346;-1.688;2022-08-23T06:13:41;16.30;99.90
28171;DHT22;15458;53.346;-1.688;2022-08-23T06:16:08;16.30;99.90
28171;DHT22;15458;53.346;-1.688;2022-08-23T06:18:34;16.30;99.90
28171;DHT22;15458;53.346;-1.688;2022-08-23T06:21:05;16.30;99.90
28171;DHT22;15458;53.346;-1.688;2022-08-23T06:23:31;16.40;99.90
28171;DHT22;15458;53.346;-1.688;2022-08-23T06:26:00;16.50;99.90
28171;DHT22;15458;53.346;-1.688;2022-08-23T06:28:29;16.50;99.90
28171;DHT22;15458;53.346;-1.688;2022-08-23T06:30:58;16.60;99.90
28171;DHT22;15458;53.346;-1.688;2022-08-23T06:33:24;16.60;99.90
28171;DHT22;15458;53.346;-1.688;2022-08-23T06:36:03;16.60;99.90
28171;DHT22;15458;53.346;-1.688;2022-08-23T06:38:29;16.60;99.90
28171;DHT22;15458;53.346;-1.688;2022-08-23T06:41:06;16.70;99.90
28171;DHT22;15458;53.346;-1.688;2022-08-23T06:43:35;16.70;99.90
28171;DHT22;15458;53.346;-1.688;2022-08-23T06:46:16;16.80;99.90
28171;DHT22;15458;53.346;-1.688;2022-08-23T06:48:43;16.80;99.90
28171;DHT22;15458;53.346;-1.688;2022-08-23T06:51:36;16.80;99.90
28171;DHT22;15458;53.346;-1.688;2022-08-23T06:54:02;16.90;99.90
28171;DHT22;15458;53.346;-1.688;2022-08-23T06:56:32;17.00;99.90
28171;DHT22;15458;53.346;-1.688;2022-08-23T06:58:58;17.00;99.90
28171;DHT22;15458;53.346;-1.688;2022-08-23T07:01:35;17.10;99.90
28171;DHT22;15458;53.346;-1.688;2022-08-23T07:04:04;17.10;99.90
28171;DHT22;15458;53.346;-1.688;2022-08-23T07:06:32;17.20;99.90
28171;DHT22;15458;53.346;-1.688;2022-08-23T07:08:59;17.20;99.90
28171;DHT22;15458;53.346;-1.688;2022-08-23T07:11:29;17.30;99.90
28171;DHT22;15458;53.346;-1.688;2022-08-23T07:14:03;17.30;99.90
28171;DHT22;15458;53.346;-1.688;2022-08-23T07:16:41;17.30;99.90
28171;DHT22;15458;53.346;-1.688;2022-08-23T07:19:09;17.30;99.90
28171;DHT22;15458;53.346;-1.688;2022-08-23T07:21:38;17.40;99.90
28171;DHT22;15458;53.346;-1.688;2022-08-23T07:24:04;17.40;99.90
28171;DHT22;15458;53.346;-1.688;2022-08-23T07:26:30;17.40;99.90
28171;DHT22;15458;53.346;-1.688;2022-08-23T07:28:59;17.40;99.90
28171;DHT22;15458;53.346;-1.688;2022-08-23T07:31:29;17.50;99.90
28171;DHT22;15458;53.346;-1.688;2022-08-23T07:33:58;17.50;99.90
28171;DHT22;15458;53.346;-1.688;2022-08-23T07:36:26;17.50;99.90
28171;DHT22;15458;53.346;-1.688;2022-08-23T07:39:05;17.50;99.90
28171;DHT22;15458;53.346;-1.688;2022-08-23T07:41:32;17.60;99.90
28171;DHT22;15458;53.346;-1.688;2022-08-23T07:43:59;17.60;99.90
28171;DHT22;15458;53.346;-1.688;2022-08-23T07:46:30;17.60;99.90
28171;DHT22;15458;53.346;-1.688;2022-08-23T07:48:58;17.60;99.90
28171;DHT22;15458;53.346;-1.688;2022-08-23T07:51:29;17.70;99.90
28171;DHT22;15458;53.346;-1.688;2022-08-23T07:53:57;17.70;99.90
28171;DHT22;15458;53.346;-1.688;2022-08-23T07:56:25;17.70;99.90
28171;DHT22;15458;53.346;-1.688;2022-08-23T07:58:53;17.70;99.90
28171;DHT22;15458;53.346;-1.688;2022-08-23T08:01:23;17.80;99.90
28171;DHT22;15458;53.346;-1.688;2022-08-23T08:03:52;17.80;99.90
28171;DHT22;15458;53.346;-1.688;2022-08-23T08:06:27;17.90;99.90
28171;DHT22;15458;53.346;-1.688;2022-08-23T08:08:56;17.90;99.90
28171;DHT22;15458;53.346;-1.688;2022-08-23T08:11:29;18.00;99.90
28171;DHT22;15458;53.346;-1.688;2022-08-23T08:13:58;18.00;99.90
28171;DHT22;15458;53.346;-1.688;2022-08-23T08:16:30;18.10;99.90
28171;DHT22;15458;53.346;-1.688;2022-08-23T08:19:04;18.10;99.90
28171;DHT22;15458;53.346;-1.688;2022-08-23T08:21:51;18.20;99.90
28171;DHT22;15458;53.346;-1.688;2022-08-23T08:24:19;18.10;99.90
28171;DHT22;15458;53.346;-1.688;2022-08-23T08:26:46;18.20;99.90
28171;DHT22;15458;53.346;-1.688;2022-08-23T08:29:15;18.20;99.90
28171;DHT22;15458;53.346;-1.688;2022-08-23T08:31:44;18.20;99.90
28171;DHT22;15458;53.346;-1.688;2022-08-23T08:34:12;18.30;99.90
28171;DHT22;15458;53.346;-1.688;2022-08-23T08:36:42;18.30;99.90
28171;DHT22;15458;53.346;-1.688;2022-08-23T08:39:18;18.30;99.90
28171;DHT22;15458;53.346;-1.688;2022-08-23T08:44:53;18.40;99.90
28171;DHT22;15458;53.346;-1.688;2022-08-23T08:50:09;18.50;99.90
28171;DHT22;15458;53.346;-1.688;2022-08-23T08:52:48;18.60;99.90
28171;DHT22;15458;53.346;-1.688;2022-08-23T08:55:45;18.60;99.90
28171;DHT22;15458;53.346;-1.688;2022-08-23T08:58:44;18.70;99.90
28171;DHT22;15458;53.346;-1.688;2022-08-23T09:01:16;18.70;99.90
28171;DHT22;15458;53.346;-1.688;2022-08-23T09:03:48;18.80;99.90
28171;DHT22;15458;53.346;-1.688;2022-08-23T09:12:24;18.80;99.90
28171;DHT22;15458;53.346;-1.688;2022-08-23T09:15:25;18.90;99.90
28171;DHT22;15458;53.346;-1.688;2022-08-23T09:18:17;18.90;99.90
28171;DHT22;15458;53.346;-1.688;2022-08-23T09:20:47;19.00;99.90
28171;DHT22;15458;53.346;-1.688;2022-08-23T09:23:43;19.10;99.90
28171;DHT22;15458;53.346;-1.688;2022-08-23T09:26:36;19.20;99.90
28171;DHT22;15458;53.346;-1.688;2022-08-23T09:29:25;19.30;99.90
28171;DHT22;15458;53.346;-1.688;2022-08-23T09:32:00;19.40;99.90
28171;DHT22;15458;53.346;-1.688;2022-08-23T09:34:38;19.50;99.90
28171;DHT22;15458;53.346;-1.688;2022-08-23T09:37:16;19.50;99.90
28171;DHT22;15458;53.346;-1.688;2022-08-23T09:40:19;19.60;99.90
28171;DHT22;15458;53.346;-1.688;2022-08-23T09:43:21;19.60;99.90
28171;DHT22;15458;53.346;-1.688;2022-08-23T09:51:17;19.80;99.90
28171;DHT22;15458;53.346;-1.688;2022-08-23T09:53:49;19.90;99.90
28171;DHT22;15458;53.346;-1.688;2022-08-23T09:56:22;20.00;99.90
28171;DHT22;15458;53.346;-1.688;2022-08-23T09:58:52;20.10;99.90
28171;DHT22;15458;53.346;-1.688;2022-08-23T10:01:24;20.20;99.90
28171;DHT22;15458;53.346;-1.688;2022-08-23T10:04:16;20.40;99.90
28171;DHT22;15458;53.346;-1.688;2022-08-23T10:06:46;20.70;99.90
28171;DHT22;15458;53.346;-1.688;2022-08-23T10:09:32;20.90;99.90
28171;DHT22;15458;53.346;-1.688;2022-08-23T10:12:10;21.20;99.90
28171;DHT22;15458;53.346;-1.688;2022-08-23T10:14:37;21.40;99.90
28171;DHT22;15458;53.346;-1.688;2022-08-23T10:17:10;21.50;99.90
28171;DHT22;15458;53.346;-1.688;2022-08-23T10:22:26;21.60;99.90
28171;DHT22;15458;53.346;-1.688;2022-08-23T10:25:29;21.50;99.90
28171;DHT22;15458;53.346;-1.688;2022-08-23T10:33:48;21.70;99.90
28171;DHT22;15458;53.346;-1.688;2022-08-23T10:39:31;22.00;99.90
28171;DHT22;15458;53.346;-1.688;2022-08-23T10:42:22;22.10;99.90
28171;DHT22;15458;53.346;-1.688;2022-08-23T10:44:58;22.10;99.90
28171;DHT22;15458;53.346;-1.688;2022-08-23T10:47:36;22.10;99.90
28171;DHT22;15458;53.346;-1.688;2022-08-23T10:50:11;22.30;99.90
28171;DHT22;15458;53.346;-1.688;2022-08-23T10:55:55;22.70;99.90
28171;DHT22;15458;53.346;-1.688;2022-08-23T11:01:28;23.10;99.90
28171;DHT22;15458;53.346;-1.688;2022-08-23T11:04:05;23.10;99.90
28171;DHT22;15458;53.346;-1.688;2022-08-23T11:14:46;23.00;99.90
28171;DHT22;15458;53.346;-1.688;2022-08-23T11:17:30;23.00;99.90
28171;DHT22;15458;53.346;-1.688;2022-08-23T11:20:07;23.00;99.90
28171;DHT22;15458;53.346;-1.688;2022-08-23T11:31:16;23.20;99.90
28171;DHT22;15458;53.346;-1.688;2022-08-23T11:36:27;24.00;99.90
28171;DHT22;15458;53.346;-1.688;2022-08-23T11:41:33;24.20;99.90
28171;DHT22;15458;53.346;-1.688;2022-08-23T11:46:36;24.20;99.20
28171;DHT22;15458;53.346;-1.688;2022-08-23T11:52:10;24.40;97.80
28171;DHT22;15458;53.346;-1.688;2022-08-23T12:04:01;25.50;94.30
28171;DHT22;15458;53.346;-1.688;2022-08-23T12:06:54;25.60;92.60
28171;DHT22;15458;53.346;-1.688;2022-08-23T12:12:32;25.70;91.80
28171;DHT22;15458;53.346;-1.688;2022-08-23T12:15:16;25.60;91.40
28171;DHT22;15458;53.346;-1.688;2022-08-23T12:20:13;25.80;90.80
28171;DHT22;15458;53.346;-1.688;2022-08-23T12:25:27;26.20;89.90
28171;DHT22;15458;53.346;-1.688;2022-08-23T12:31:02;26.80;86.10
28171;DHT22;15458;53.346;-1.688;2022-08-23T12:33:49;27.10;85.40
28171;DHT22;15458;53.346;-1.688;2022-08-23T12:36:38;27.30;84.10
28171;DHT22;15458;53.346;-1.688;2022-08-23T12:44:25;26.90;81.10
28171;DHT22;15458;53.346;-1.688;2022-08-23T12:46:51;26.70;81.80
28171;DHT22;15458;53.346;-1.688;2022-08-23T12:49:35;26.50;82.60
28171;DHT22;15458;53.346;-1.688;2022-08-23T12:52:06;26.30;82.90
28171;DHT22;15458;53.346;-1.688;2022-08-23T12:54:49;25.90;83.80
28171;DHT22;15458;53.346;-1.688;2022-08-23T12:57:26;25.70;85.10
28171;DHT22;15458;53.346;-1.688;2022-08-23T13:00:21;25.80;86.90
28171;DHT22;15458;53.346;-1.688;2022-08-23T13:03:15;26.30;87.50
28171;DHT22;15458;53.346;-1.688;2022-08-23T13:05:58;26.40;85.40
28171;DHT22;15458;53.346;-1.688;2022-08-23T13:08:32;26.40;83.90
28171;DHT22;15458;53.346;-1.688;2022-08-23T13:10:58;26.10;83.20
28171;DHT22;15458;53.346;-1.688;2022-08-23T13:13:41;25.80;83.90
28171;DHT22;15458;53.346;-1.688;2022-08-23T13:16:39;25.90;85.80
28171;DHT22;15458;53.346;-1.688;2022-08-23T13:19:26;25.90;85.40
28171;DHT22;15458;53.346;-1.688;2022-08-23T13:22:12;26.00;86.10
28171;DHT22;15458;53.346;-1.688;2022-08-23T13:24:42;25.90;86.00
28171;DHT22;15458;53.346;-1.688;2022-08-23T13:27:15;25.90;86.50
28171;DHT22;15458;53.346;-1.688;2022-08-23T13:32:31;26.10;86.30
28171;DHT22;15458;53.346;-1.688;2022-08-23T13:35:34;26.10;86.00
28171;DHT22;15458;53.346;-1.688;2022-08-23T13:41:00;25.90;86.60
28171;DHT22;15458;53.346;-1.688;2022-08-23T13:44:06;25.90;87.00
28171;DHT22;15458;53.346;-1.688;2022-08-23T13:46:27;26.00;86.30
28171;DHT22;15458;53.346;-1.688;2022-08-23T13:49:04;26.00;85.10
28171;DHT22;15458;53.346;-1.688;2022-08-23T13:51:41;26.10;84.70
28171;DHT22;15458;53.346;-1.688;2022-08-23T13:54:13;26.20;83.90
28171;DHT22;15458;53.346;-1.688;2022-08-23T13:56:50;26.10;83.90
28171;DHT22;15458;53.346;-1.688;2022-08-23T13:59:30;26.10;84.90
28171;DHT22;15458;53.346;-1.688;2022-08-23T14:02:03;26.10;85.70
28171;DHT22;15458;53.346;-1.688;2022-08-23T14:04:30;26.10;85.80
28171;DHT22;15458;53.346;-1.688;2022-08-23T14:06:57;26.10;85.90
28171;DHT22;15458;53.346;-1.688;2022-08-23T14:09:25;26.20;85.60
28171;DHT22;15458;53.346;-1.688;2022-08-23T14:11:59;26.30;85.00
28171;DHT22;15458;53.346;-1.688;2022-08-23T14:14:28;26.60;84.10
28171;DHT22;15458;53.346;-1.688;2022-08-23T14:16:57;26.80;83.50
28171;DHT22;15458;53.346;-1.688;2022-08-23T14:19:24;27.00;82.90
28171;DHT22;15458;53.346;-1.688;2022-08-23T14:21:50;27.10;82.20
28171;DHT22;15458;53.346;-1.688;2022-08-23T14:24:17;27.30;81.30
28171;DHT22;15458;53.346;-1.688;2022-08-23T14:26:44;27.40;79.70
28171;DHT22;15458;53.346;-1.688;2022-08-23T14:29:10;27.40;77.90
28171;DHT22;15458;53.346;-1.688;2022-08-23T14:31:47;27.60;77.80
28171;DHT22;15458;53.346;-1.688;2022-08-23T14:34:14;27.70;76.80
28171;DHT22;15458;53.346;-1.688;2022-08-23T14:36:47;27.90;76.20
28171;DHT22;15458;53.346;-1.688;2022-08-23T14:39:30;28.10;74.90
28171;DHT22;15458;53.346;-1.688;2022-08-23T14:41:56;28.30;74.10
28171;DHT22;15458;53.346;-1.688;2022-08-23T14:44:26;28.50;73.80
28171;DHT22;15458;53.346;-1.688;2022-08-23T14:47:07;28.60;72.60
28171;DHT22;15458;53.346;-1.688;2022-08-23T14:49:43;28.60;71.20
28171;DHT22;15458;53.346;-1.688;2022-08-23T14:52:12;28.50;70.60
28171;DHT22;15458;53.346;-1.688;2022-08-23T14:54:39;28.50;71.20
28171;DHT22;15458;53.346;-1.688;2022-08-23T14:57:06;28.50;69.90
28171;DHT22;15458;53.346;-1.688;2022-08-23T14:59:36;28.60;69.80
28171;DHT22;15458;53.346;-1.688;2022-08-23T15:02:07;28.80;70.20
28171;DHT22;15458;53.346;-1.688;2022-08-23T15:05:18;29.00;69.50
28171;DHT22;15458;53.346;-1.688;2022-08-23T15:08:17;28.90;67.20
28171;DHT22;15458;53.346;-1.688;2022-08-23T15:10:52;28.50;67.10
28171;DHT22;15458;53.346;-1.688;2022-08-23T15:13:22;28.10;68.30
28171;DHT22;15458;53.346;-1.688;2022-08-23T15:15:58;27.80;69.30
28171;DHT22;15458;53.346;-1.688;2022-08-23T15:18:42;27.60;70.00
28171;DHT22;15458;53.346;-1.688;2022-08-23T15:21:15;27.20;70.50
28171;DHT22;15458;53.346;-1.688;2022-08-23T15:24:09;26.90;71.40
28171;DHT22;15458;53.346;-1.688;2022-08-23T15:27:28;26.70;72.80
28171;DHT22;15458;53.346;-1.688;2022-08-23T15:30:51;26.60;74.00
28171;DHT22;15458;53.346;-1.688;2022-08-23T15:33:34;26.60;74.10
28171;DHT22;15458;53.346;-1.688;2022-08-23T15:39:49;26.50;74.40
28171;DHT22;15458;53.346;-1.688;2022-08-23T15:42:54;26.30;74.20
28171;DHT22;15458;53.346;-1.688;2022-08-23T15:45:57;26.00;74.20
28171;DHT22;15458;53.346;-1.688;2022-08-23T15:48:35;25.70;74.70
28171;DHT22;15458;53.346;-1.688;2022-08-23T15:52:01;25.60;75.60
28171;DHT22;15458;53.346;-1.688;2022-08-23T16:06:00;24.80;79.30
28171;DHT22;15458;53.346;-1.688;2022-08-23T16:09:44;24.60;80.10
28171;DHT22;15458;53.346;-1.688;2022-08-23T16:12:48;24.50;81.20
28171;DHT22;15458;53.346;-1.688;2022-08-23T16:15:49;24.40;81.90
28171;DHT22;15458;53.346;-1.688;2022-08-23T16:22:00;24.20;83.50
28171;DHT22;15458;53.346;-1.688;2022-08-23T16:24:46;24.10;84.20
28171;DHT22;15458;53.346;-1.688;2022-08-23T16:28:19;24.00;84.90
28171;DHT22;15458;53.346;-1.688;2022-08-23T16:31:22;23.90;86.10
28171;DHT22;15458;53.346;-1.688;2022-08-23T16:38:00;23.70;87.80
28171;DHT22;15458;53.346;-1.688;2022-08-23T16:40:31;23.80;88.50
28171;DHT22;15458;53.346;-1.688;2022-08-23T16:43:03;23.80;88.70
28171;DHT22;15458;53.346;-1.688;2022-08-23T16:46:11;23.90;88.60
28171;DHT22;15458;53.346;-1.688;2022-08-23T16:48:43;23.90;88.30
28171;DHT22;15458;53.346;-1.688;2022-08-23T16:51:14;24.00;89.00
28171;DHT22;15458;53.346;-1.688;2022-08-23T16:53:52;24.00;88.00
28171;DHT22;15458;53.346;-1.688;2022-08-23T16:56:21;24.00;88.10
28171;DHT22;15458;53.346;-1.688;2022-08-23T16:58:57;24.00;88.30
28171;DHT22;15458;53.346;-1.688;2022-08-23T17:01:53;24.00;88.60
28171;DHT22;15458;53.346;-1.688;2022-08-23T17:05:05;23.90;88.50
28171;DHT22;15458;53.346;-1.688;2022-08-23T17:07:40;23.90;88.60
28171;DHT22;15458;53.346;-1.688;2022-08-23T17:13:07;23.70;89.20
28171;DHT22;15458;53.346;-1.688;2022-08-23T17:15:36;23.60;89.60
28171;DHT22;15458;53.346;-1.688;2022-08-23T17:18:06;23.50;89.80
28171;DHT22;15458;53.346;-1.688;2022-08-23T17:20:38;23.40;90.10
28171;DHT22;15458;53.346;-1.688;2022-08-23T17:23:09;23.40;90.40
28171;DHT22;15458;53.346;-1.688;2022-08-23T17:25:55;23.40;90.50
28171;DHT22;15458;53.346;-1.688;2022-08-23T17:29:16;23.40;90.60
28171;DHT22;15458;53.346;-1.688;2022-08-23T17:31:59;23.30;90.40
28171;DHT22;15458;53.346;-1.688;2022-08-23T17:34:35;23.20;90.40
28171;DHT22;15458;53.346;-1.688;2022-08-23T17:37:19;23.10;90.20
28171;DHT22;15458;53.346;-1.688;2022-08-23T17:40:12;23.10;90.00
28171;DHT22;15458;53.346;-1.688;2022-08-23T17:42:44;23.00;89.90
28171;DHT22;15458;53.346;-1.688;2022-08-23T17:45:20;23.00;89.80
28171;DHT22;15458;53.346;-1.688;2022-08-23T17:47:46;23.00;89.90
28171;DHT22;15458;53.346;-1.688;2022-08-23T17:50:29;22.90;90.00
28171;DHT22;15458;53.346;-1.688;2022-08-23T17:57:07;22.80;90.30
28171;DHT22;15458;53.346;-1.688;2022-08-23T18:00:10;22.70;90.50
28171;DHT22;15458;53.346;-1.688;2022-08-23T18:03:21;22.70;90.70
28171;DHT22;15458;53.346;-1.688;2022-08-23T18:09:51;22.50;91.60
28171;DHT22;15458;53.346;-1.688;2022-08-23T18:13:07;22.50;91.50
28171;DHT22;15458;53.346;-1.688;2022-08-23T18:15:58;22.40;91.80
28171;DHT22;15458;53.346;-1.688;2022-08-23T18:18:34;22.30;92.00
28171;DHT22;15458;53.346;-1.688;2022-08-23T18:21:25;22.20;92.20
28171;DHT22;15458;53.346;-1.688;2022-08-23T18:24:15;22.20;92.60